createdAt,value
2022-11-05T00:02:23.443Z,4.50
2022-11-05T00:05:08.699Z,4.60
2022-11-05T00:08:00.479Z,4.60
2022-11-05T00:10:30.188Z,4.60
2022-11-05T00:13:17.371Z,4.50
2022-11-05T00:16:03.131Z,4.40
2022-11-05T00:18:30.126Z,4.50
2022-11-05T00:20:57.115Z,4.50
2022-11-05T00:23:42.421Z,4.60
2022-11-05T00:26:11.536Z,4.70
2022-11-05T00:28:41.694Z,4.70
2022-11-05T00:31:10.773Z,4.60
2022-11-05T00:33:38.905Z,4.70
2022-11-05T00:36:07.745Z,4.70
2022-11-05T00:38:35.393Z,4.50
2022-11-05T00:41:02.163Z,4.50
2022-11-05T00:43:47.431Z,4.60
2022-11-05T00:46:14.172Z,4.70
2022-11-05T00:48:59.419Z,4.80
2022-11-05T00:51:26.148Z,4.80
2022-11-05T00:53:52.890Z,4.60
2022-11-05T00:56:19.624Z,4.70
2022-11-05T00:58:46.444Z,4.70
2022-11-05T01:01:13.222Z,4.90
2022-11-05T01:03:40.702Z,4.80
2022-11-05T01:06:07.529Z,4.80
2022-11-05T01:08:34.313Z,4.60
2022-11-05T01:11:07.402Z,4.60
2022-11-05T01:13:34.153Z,4.50
2022-11-05T01:16:07.123Z,4.60
2022-11-05T01:18:34.207Z,4.70
2022-11-05T01:21:09.217Z,4.80
2022-11-05T01:23:35.976Z,4.80
2022-11-05T01:26:02.947Z,4.70
2022-11-05T01:28:29.717Z,4.60
2022-11-05T01:30:57.372Z,4.50
2022-11-05T01:33:25.006Z,4.60
2022-11-05T01:35:51.869Z,4.80
2022-11-05T01:38:19.320Z,4.80
2022-11-05T01:40:46.850Z,4.70
2022-11-05T01:43:22.095Z,4.70
2022-11-05T01:45:54.561Z,4.70
2022-11-05T01:48:32.492Z,4.60
2022-11-05T01:51:01.094Z,4.60
2022-11-05T01:53:34.412Z,4.70
2022-11-05T01:56:11.059Z,4.70
2022-11-05T01:58:45.098Z,4.70
2022-11-05T02:01:12.681Z,4.70
2022-11-05T02:03:40.058Z,4.90
2022-11-05T02:06:09.447Z,4.90
2022-11-05T02:08:59.785Z,4.70
2022-11-05T02:11:26.691Z,4.70
2022-11-05T02:13:53.589Z,4.80
2022-11-05T02:16:23.052Z,4.90
2022-11-05T02:18:56.703Z,4.90
2022-11-05T02:21:36.219Z,4.80
2022-11-05T02:24:35.894Z,4.70
2022-11-05T02:27:18.906Z,4.70
2022-11-05T02:30:24.490Z,4.70
2022-11-05T02:33:30.350Z,4.70
2022-11-05T02:36:27.374Z,4.70
2022-11-05T02:39:16.035Z,4.70
2022-11-05T02:42:04.900Z,4.80
2022-11-05T02:44:54.584Z,4.60
2022-11-05T02:47:27.063Z,4.70
2022-11-05T02:50:19.413Z,4.70
2022-11-05T02:53:18.802Z,4.90
2022-11-05T02:55:52.441Z,5.10
2022-11-05T02:58:19.181Z,5.20
2022-11-05T03:00:50.693Z,5.10
2022-11-05T03:03:36.086Z,4.90
2022-11-05T03:06:33.263Z,4.90
2022-11-05T03:09:33.420Z,4.90
2022-11-05T03:12:21.510Z,4.90
2022-11-05T03:15:11.901Z,4.90
2022-11-05T03:18:19.171Z,4.80
2022-11-05T03:20:45.940Z,4.80
2022-11-05T03:23:19.080Z,4.90
2022-11-05T03:25:55.440Z,4.90
2022-11-05T03:28:27.226Z,5.00
2022-11-05T03:30:55.170Z,5.00
2022-11-05T03:33:27.250Z,5.00
2022-11-05T03:35:58.174Z,4.80
2022-11-05T03:38:29.099Z,5.00
2022-11-05T03:41:00.432Z,5.00
2022-11-05T03:43:32.517Z,5.10
2022-11-05T03:46:27.681Z,4.80
2022-11-05T03:48:58.305Z,4.90
2022-11-05T03:51:29.980Z,4.90
2022-11-05T03:53:59.845Z,4.90
2022-11-05T03:56:43.835Z,4.80
2022-11-05T03:59:12.042Z,4.90
2022-11-05T04:01:39.484Z,5.00
2022-11-05T04:04:07.541Z,4.80
2022-11-05T04:06:53.365Z,4.90
2022-11-05T04:09:38.833Z,4.80
2022-11-05T04:12:25.660Z,4.70
2022-11-05T04:14:52.430Z,4.80
2022-11-05T04:17:19.168Z,4.70
2022-11-05T04:20:04.856Z,4.70
2022-11-05T04:22:52.086Z,4.90
2022-11-05T04:25:20.306Z,4.80
2022-11-05T04:27:47.611Z,4.90
2022-11-05T04:30:19.189Z,4.80
2022-11-05T04:33:18.428Z,4.80
2022-11-05T04:35:47.541Z,4.80
2022-11-05T04:38:16.698Z,4.90
2022-11-05T04:40:44.610Z,4.90
2022-11-05T04:43:17.089Z,4.90
2022-11-05T04:45:44.726Z,4.80
2022-11-05T04:48:11.821Z,4.90
2022-11-05T04:50:39.287Z,4.80
2022-11-05T04:53:06.023Z,4.80
2022-11-05T04:55:32.778Z,4.80
2022-11-05T04:57:59.560Z,4.90
2022-11-05T05:00:26.458Z,5.00
2022-11-05T05:02:53.244Z,5.00
2022-11-05T05:05:21.291Z,5.00
2022-11-05T05:07:48.075Z,4.90
2022-11-05T05:10:14.806Z,4.90
2022-11-05T05:12:41.605Z,4.90
2022-11-05T05:15:08.710Z,5.00
2022-11-05T05:17:35.475Z,5.00
2022-11-05T05:20:20.733Z,5.00
2022-11-05T05:22:54.693Z,4.90
2022-11-05T05:25:22.428Z,4.90
2022-11-05T05:27:49.194Z,4.90
2022-11-05T05:30:15.982Z,5.00
2022-11-05T05:32:42.715Z,5.00
2022-11-05T05:35:10.124Z,5.00
2022-11-05T05:37:36.894Z,4.90
2022-11-05T05:40:03.869Z,4.90
2022-11-05T05:42:30.648Z,5.00
2022-11-05T05:44:57.382Z,5.00
2022-11-05T05:47:24.120Z,5.00
2022-11-05T05:49:50.888Z,5.00
2022-11-05T05:52:17.706Z,5.00
2022-11-05T05:54:44.498Z,5.00
2022-11-05T05:57:11.234Z,5.00
2022-11-05T05:59:38.031Z,4.90
2022-11-05T06:02:05.074Z,4.90
2022-11-05T06:04:31.916Z,5.00
2022-11-05T06:06:58.662Z,5.00
2022-11-05T06:09:25.393Z,5.00
2022-11-05T06:11:52.140Z,5.00
2022-11-05T06:14:18.862Z,5.10
2022-11-05T06:16:45.622Z,5.10
2022-11-05T06:19:12.853Z,5.10
2022-11-05T06:21:39.626Z,5.10
2022-11-05T06:24:06.745Z,5.10
2022-11-05T06:26:34.002Z,5.10
2022-11-05T06:29:00.749Z,5.20
2022-11-05T06:31:27.495Z,5.30
2022-11-05T06:33:54.225Z,5.30
2022-11-05T06:36:21.339Z,5.30
2022-11-05T06:38:48.133Z,5.30
2022-11-05T06:41:15.160Z,5.40
2022-11-05T06:43:42.316Z,5.40
2022-11-05T06:46:11.299Z,5.40
2022-11-05T06:48:38.662Z,5.50
2022-11-05T06:51:07.513Z,5.60
2022-11-05T06:53:35.179Z,5.60
2022-11-05T06:56:03.769Z,5.60
2022-11-05T06:58:31.253Z,5.60
2022-11-05T07:01:06.212Z,5.70
2022-11-05T07:03:32.948Z,5.80
2022-11-05T07:06:00.905Z,5.90
2022-11-05T07:08:31.989Z,6.00
2022-11-05T07:10:59.474Z,6.10
2022-11-05T07:13:26.692Z,6.20
2022-11-05T07:15:53.549Z,6.30
2022-11-05T07:18:20.417Z,6.30
2022-11-05T07:20:47.183Z,6.30
2022-11-05T07:23:15.342Z,6.40
2022-11-05T07:25:43.002Z,6.60
2022-11-05T07:28:10.752Z,6.60
2022-11-05T07:30:37.904Z,6.60
2022-11-05T07:33:05.012Z,6.80
2022-11-05T07:35:32.161Z,7.00
2022-11-05T07:37:58.958Z,7.10
2022-11-05T07:40:28.246Z,7.30
2022-11-05T07:42:59.940Z,7.50
2022-11-05T07:45:29.025Z,7.70
2022-11-05T07:48:01.251Z,7.60
2022-11-05T07:50:31.351Z,7.70
2022-11-05T07:53:12.118Z,7.70
2022-11-05T07:55:41.163Z,7.90
2022-11-05T07:58:08.245Z,7.90
2022-11-05T08:00:35.121Z,8.00
2022-11-05T08:03:10.452Z,8.00
2022-11-05T08:05:39.571Z,8.10
2022-11-05T08:08:08.154Z,8.00
2022-11-05T08:10:35.830Z,8.00
2022-11-05T08:13:02.802Z,8.00
2022-11-05T08:15:30.249Z,8.10
2022-11-05T08:18:04.888Z,8.20
2022-11-05T08:20:32.061Z,8.20
2022-11-05T08:22:58.863Z,8.40
2022-11-05T08:25:26.243Z,8.40
2022-11-05T08:28:05.040Z,8.50
2022-11-05T08:30:32.601Z,8.50
2022-11-05T08:33:08.995Z,8.40
2022-11-05T08:35:37.408Z,8.60
2022-11-05T08:38:06.045Z,8.90
2022-11-05T08:40:34.752Z,9.10
2022-11-05T08:43:03.389Z,8.90
2022-11-05T08:45:31.023Z,9.00
2022-11-05T08:48:02.386Z,9.00
2022-11-05T08:50:29.614Z,8.90
2022-11-05T08:52:56.571Z,8.80
2022-11-05T08:55:23.809Z,8.90
2022-11-05T08:58:05.568Z,9.00
2022-11-05T09:00:35.384Z,9.10
2022-11-05T09:03:04.175Z,9.10
2022-11-05T09:05:37.536Z,9.10
2022-11-05T09:08:05.401Z,9.20
2022-11-05T09:10:32.389Z,9.30
2022-11-05T09:12:59.140Z,9.30
2022-11-05T09:15:25.897Z,9.30
2022-11-05T09:17:52.862Z,9.30
2022-11-05T09:20:19.670Z,9.30
2022-11-05T09:22:46.729Z,9.40
2022-11-05T09:25:15.300Z,9.60
2022-11-05T09:27:42.616Z,9.60
2022-11-05T09:30:10.970Z,9.60
2022-11-05T09:32:38.037Z,9.70
2022-11-05T09:35:05.525Z,9.80
2022-11-05T09:37:32.650Z,10.00
2022-11-05T09:39:59.441Z,10.00
2022-11-05T09:42:31.613Z,10.20
2022-11-05T09:45:14.986Z,10.10
2022-11-05T09:47:45.841Z,10.10
2022-11-05T09:50:18.829Z,10.10
2022-11-05T09:52:45.907Z,10.20
2022-11-05T09:55:29.001Z,10.20
2022-11-05T09:58:02.824Z,10.20
2022-11-05T10:00:31.199Z,10.20
2022-11-05T10:03:04.003Z,10.30
2022-11-05T10:05:33.036Z,10.30
2022-11-05T10:08:05.267Z,10.40
2022-11-05T10:10:47.715Z,10.70
2022-11-05T10:13:26.661Z,10.80
2022-11-05T10:16:21.702Z,10.70
2022-11-05T10:18:54.258Z,10.60
2022-11-05T10:21:37.617Z,10.70
2022-11-05T10:24:20.205Z,10.60
2022-11-05T10:26:49.479Z,10.60
2022-11-05T10:29:36.636Z,10.60
2022-11-05T10:32:05.760Z,10.60
2022-11-05T10:34:36.829Z,10.70
2022-11-05T10:37:04.198Z,10.70
2022-11-05T10:39:33.381Z,10.70
2022-11-05T10:42:21.630Z,11.00
2022-11-05T10:45:04.719Z,11.10
2022-11-05T10:47:43.365Z,11.00
2022-11-05T10:50:13.845Z,10.90
2022-11-05T10:52:52.410Z,10.90
2022-11-05T10:55:34.442Z,10.90
2022-11-05T10:58:08.867Z,10.90
2022-11-05T11:00:36.628Z,11.00
2022-11-05T11:03:06.520Z,11.00
2022-11-05T11:05:36.914Z,10.90
2022-11-05T11:08:06.663Z,11.00
2022-11-05T11:10:50.998Z,11.00
2022-11-05T11:13:26.869Z,10.90
2022-11-05T11:15:54.145Z,10.90
2022-11-05T11:18:42.524Z,10.90
2022-11-05T11:21:15.587Z,10.90
2022-11-05T11:23:43.647Z,10.90
2022-11-05T11:26:12.521Z,10.90
2022-11-05T11:28:49.014Z,11.00
2022-11-05T11:31:21.174Z,11.10
2022-11-05T11:33:51.009Z,11.10
2022-11-05T11:36:24.282Z,11.20
2022-11-05T11:38:51.225Z,11.20
2022-11-05T11:41:28.169Z,11.20
2022-11-05T11:44:02.038Z,11.30
2022-11-05T11:46:33.959Z,11.30
2022-11-05T11:49:01.134Z,11.40
2022-11-05T11:51:40.408Z,11.40
2022-11-05T11:54:19.698Z,11.40
2022-11-05T11:56:48.503Z,11.40
2022-11-05T12:02:37.888Z,11.40
2022-11-05T12:05:07.669Z,11.50
2022-11-05T12:07:49.803Z,11.50
2022-11-05T12:10:38.192Z,11.60
2022-11-05T12:13:20.590Z,11.60
2022-11-05T12:16:19.280Z,11.70
2022-11-05T12:19:05.430Z,11.70
2022-11-05T12:21:55.314Z,11.70
2022-11-05T12:24:32.570Z,11.70
2022-11-05T12:27:20.562Z,11.70
2022-11-05T12:29:47.237Z,11.70
2022-11-05T12:32:53.006Z,11.80
2022-11-05T12:35:49.856Z,11.80
2022-11-05T12:38:43.689Z,11.90
2022-11-05T12:41:41.404Z,12.00
2022-11-05T12:44:27.558Z,12.00
2022-11-05T12:47:06.432Z,12.00
2022-11-05T12:49:45.200Z,12.00
2022-11-05T12:52:29.047Z,11.80
2022-11-05T12:54:59.070Z,11.80
2022-11-05T12:57:28.827Z,11.80
2022-11-05T13:00:05.505Z,11.70
2022-11-05T13:02:41.191Z,11.80
2022-11-05T13:05:19.964Z,11.80
2022-11-05T13:08:25.303Z,11.80
2022-11-05T13:11:23.732Z,11.70
2022-11-05T13:14:11.969Z,11.70
2022-11-05T13:16:47.768Z,11.60
2022-11-05T13:19:41.085Z,11.60
2022-11-05T13:22:37.164Z,11.50
2022-11-05T13:25:19.210Z,11.50
2022-11-05T13:27:54.993Z,11.50
2022-11-05T13:30:24.671Z,11.60
2022-11-05T13:33:13.651Z,11.50
2022-11-05T13:35:49.768Z,11.50
2022-11-05T13:38:44.189Z,11.50
2022-11-05T13:41:56.085Z,11.50
2022-11-05T13:44:37.097Z,11.50
2022-11-05T13:47:31.318Z,11.50
2022-11-05T13:50:03.940Z,11.50
2022-11-05T13:52:53.026Z,11.50
2022-11-05T13:55:26.190Z,11.50
2022-11-05T13:58:10.914Z,11.50
2022-11-05T14:00:55.015Z,11.50
2022-11-05T14:03:22.235Z,11.50
2022-11-05T14:06:02.264Z,11.50
2022-11-05T14:08:32.955Z,11.50
2022-11-05T14:11:07.159Z,11.50
2022-11-05T14:13:40.688Z,11.50
2022-11-05T14:16:10.491Z,11.50
2022-11-05T14:18:45.041Z,11.40
2022-11-05T14:21:27.256Z,11.30
2022-11-05T14:24:14.101Z,11.20
2022-11-05T14:26:40.927Z,11.20
2022-11-05T14:29:10.665Z,11.10
2022-11-05T14:32:09.580Z,11.00
2022-11-05T14:34:42.838Z,10.90
2022-11-05T14:37:12.721Z,10.90
2022-11-05T14:39:40.967Z,11.00
2022-11-05T14:42:12.155Z,10.90
2022-11-05T14:45:01.458Z,10.90
2022-11-05T14:47:38.651Z,10.90
2022-11-05T14:50:36.814Z,10.90
2022-11-05T14:53:26.214Z,10.90
2022-11-05T14:56:09.696Z,10.80
2022-11-05T14:58:44.339Z,10.60
2022-11-05T15:01:14.254Z,10.50
2022-11-05T15:03:45.808Z,10.50
2022-11-05T15:06:52.597Z,10.50
2022-11-05T15:09:47.445Z,10.60
2022-11-05T15:12:30.117Z,10.50
2022-11-05T15:15:21.529Z,10.30
2022-11-05T15:18:03.719Z,10.10
2022-11-05T15:20:40.333Z,9.90
2022-11-05T15:23:12.682Z,9.90
2022-11-05T15:26:07.127Z,10.00
2022-11-05T15:28:51.840Z,9.60
2022-11-05T15:31:26.911Z,9.20
2022-11-05T15:34:18.400Z,9.60
2022-11-05T15:36:56.543Z,9.30
2022-11-05T15:39:29.764Z,9.20
2022-11-05T15:41:58.677Z,9.40
2022-11-05T15:44:34.842Z,9.30
2022-11-05T15:47:12.241Z,9.00
2022-11-05T15:49:39.467Z,8.50
2022-11-05T15:52:09.142Z,8.30
2022-11-05T15:54:36.324Z,7.90
2022-11-05T15:57:03.651Z,7.80
2022-11-05T15:59:31.085Z,7.60
2022-11-05T16:02:05.958Z,7.40
2022-11-05T16:04:34.830Z,8.30
2022-11-05T16:07:09.578Z,8.50
2022-11-05T16:09:40.122Z,8.40
2022-11-05T16:12:19.428Z,8.40
2022-11-05T16:15:08.082Z,8.20
2022-11-05T16:17:45.909Z,8.10
2022-11-05T16:20:29.663Z,8.10
2022-11-05T16:23:52.064Z,8.10
2022-11-05T16:29:36.166Z,7.90
2022-11-05T16:32:14.701Z,7.80
2022-11-05T16:34:46.860Z,7.60
2022-11-05T16:37:16.492Z,7.20
2022-11-05T16:39:43.251Z,7.10
2022-11-05T16:42:34.200Z,7.00
2022-11-05T16:45:00.922Z,6.50
2022-11-05T16:47:27.674Z,6.60
2022-11-05T16:49:54.511Z,6.90
2022-11-05T16:52:21.393Z,6.80
2022-11-05T16:54:48.198Z,6.50
2022-11-05T16:57:32.515Z,6.60
2022-11-05T17:00:00.555Z,6.70
2022-11-05T17:02:28.141Z,6.30
2022-11-05T17:04:55.109Z,6.20
2022-11-05T17:07:21.907Z,6.00
2022-11-05T17:09:48.768Z,5.80
2022-11-05T17:12:15.672Z,6.00
2022-11-05T17:14:42.457Z,6.10
2022-11-05T17:17:10.226Z,6.10
2022-11-05T17:19:42.190Z,6.30
2022-11-05T17:22:09.098Z,6.10
2022-11-05T17:24:35.941Z,6.00
2022-11-05T17:27:02.753Z,5.80
2022-11-05T17:29:29.547Z,5.80
2022-11-05T17:31:56.419Z,5.90
2022-11-05T17:34:23.183Z,5.60
2022-11-05T17:36:49.979Z,5.60
2022-11-05T17:39:16.771Z,5.70
2022-11-05T17:41:43.743Z,5.50
2022-11-05T17:44:11.931Z,5.30
2022-11-05T17:46:38.754Z,5.60
2022-11-05T17:49:05.629Z,5.20
2022-11-05T17:51:34.241Z,5.00
2022-11-05T17:54:01.085Z,5.10
2022-11-05T17:56:34.356Z,5.30
2022-11-05T17:59:03.573Z,5.40
2022-11-05T18:01:33.018Z,5.30
2022-11-05T18:04:05.498Z,4.90
2022-11-05T18:06:36.335Z,5.20
2022-11-05T18:09:04.525Z,5.00
2022-11-05T18:11:32.215Z,5.10
2022-11-05T18:13:59.085Z,5.30
2022-11-05T18:16:25.963Z,4.90
2022-11-05T18:18:52.813Z,4.80
2022-11-05T18:21:19.618Z,4.90
2022-11-05T18:23:46.573Z,5.10
2022-11-05T18:26:15.691Z,4.60
2022-11-05T18:28:43.526Z,4.90
2022-11-05T18:31:20.640Z,4.90
2022-11-05T18:33:54.733Z,4.80
2022-11-05T18:36:25.186Z,4.60
2022-11-05T18:38:52.746Z,4.80
2022-11-05T18:41:20.974Z,4.70
2022-11-05T18:43:47.965Z,4.60
2022-11-05T18:46:35.894Z,4.40
2022-11-05T18:49:02.545Z,4.50
2022-11-05T18:51:29.366Z,4.50
2022-11-05T18:53:56.634Z,4.50
2022-11-05T18:56:23.400Z,4.40
2022-11-05T18:59:03.329Z,4.50
2022-11-05T19:01:39.855Z,4.30
2022-11-05T19:04:06.709Z,4.30
2022-11-05T19:06:35.379Z,4.40
2022-11-05T19:09:03.375Z,4.40
2022-11-05T19:11:30.334Z,4.40
2022-11-05T19:13:57.187Z,4.60
2022-11-05T19:16:26.678Z,4.30
2022-11-05T19:18:53.906Z,3.80
2022-11-05T19:21:23.332Z,3.80
2022-11-05T19:23:51.378Z,4.10
2022-11-05T19:26:27.209Z,3.80
2022-11-05T19:28:56.729Z,4.10
2022-11-05T19:31:23.969Z,3.70
2022-11-05T19:33:52.411Z,3.70
2022-11-05T19:36:20.839Z,3.70
2022-11-05T19:38:52.440Z,3.80
2022-11-05T19:41:19.394Z,3.90
2022-11-05T19:43:46.713Z,3.80
2022-11-05T19:46:17.030Z,3.80
2022-11-05T19:48:44.313Z,3.70
2022-11-05T19:51:15.514Z,3.60
2022-11-05T19:53:43.141Z,3.80
2022-11-05T19:56:13.932Z,3.80
2022-11-05T19:58:41.192Z,3.60
2022-11-05T20:01:08.894Z,3.90
2022-11-05T20:03:37.698Z,3.90
2022-11-05T20:06:11.088Z,4.00
2022-11-05T20:08:53.363Z,3.50
2022-11-05T20:11:25.416Z,3.60
2022-11-05T20:13:52.614Z,3.50
2022-11-05T20:16:25.983Z,3.30
2022-11-05T20:18:53.027Z,3.40
2022-11-05T20:21:20.382Z,3.60
2022-11-05T20:23:47.542Z,3.30
2022-11-05T20:26:15.299Z,3.40
2022-11-05T20:28:43.775Z,3.10
2022-11-05T20:31:13.356Z,3.40
2022-11-05T20:33:41.072Z,3.30
2022-11-05T20:36:10.764Z,3.50
2022-11-05T20:38:37.898Z,3.40
2022-11-05T20:41:09.804Z,3.40
2022-11-05T20:43:37.966Z,3.30
2022-11-05T20:46:05.182Z,3.30
2022-11-05T20:48:33.538Z,3.10
2022-11-05T20:51:05.820Z,3.00
2022-11-05T20:53:32.793Z,3.00
2022-11-05T20:56:02.523Z,3.00
2022-11-05T20:58:33.500Z,3.00
2022-11-05T21:01:00.402Z,2.90
2022-11-05T21:03:27.316Z,3.10
2022-11-05T21:05:59.825Z,2.90
2022-11-05T21:08:27.725Z,3.10
2022-11-05T21:10:55.073Z,3.20
2022-11-05T21:13:22.365Z,3.20
2022-11-05T21:15:51.563Z,3.10
2022-11-05T21:18:20.242Z,3.20
2022-11-05T21:20:47.525Z,3.10
2022-11-05T21:23:15.495Z,3.20
2022-11-05T21:25:43.239Z,3.00
2022-11-05T21:28:11.945Z,3.00
2022-11-05T21:30:47.565Z,3.10
2022-11-05T21:33:16.458Z,3.10
2022-11-05T21:36:10.941Z,3.10
2022-11-05T21:38:38.428Z,3.10
2022-11-05T21:41:05.757Z,2.90
2022-11-05T21:43:32.695Z,3.00
2022-11-05T21:46:03.649Z,3.10
2022-11-05T21:48:31.441Z,2.80
2022-11-05T21:51:16.828Z,2.70
2022-11-05T21:54:02.222Z,2.90
2022-11-05T21:56:47.349Z,2.80
2022-11-05T21:59:38.270Z,2.60
2022-11-05T22:02:05.820Z,2.70
2022-11-05T22:04:42.701Z,2.60
2022-11-05T22:07:12.430Z,2.60
2022-11-05T22:09:39.393Z,2.70
2022-11-05T22:12:06.838Z,2.90
2022-11-05T22:14:34.065Z,2.90
2022-11-05T22:17:01.302Z,2.50
2022-11-05T22:19:28.086Z,2.70
2022-11-05T22:21:54.947Z,3.00
2022-11-05T22:24:22.290Z,2.60
2022-11-05T22:26:49.502Z,2.70
2022-11-05T22:29:16.889Z,2.40
2022-11-05T22:31:44.260Z,2.60
2022-11-05T22:34:11.604Z,2.50
2022-11-05T22:36:38.849Z,2.50
2022-11-05T22:39:06.434Z,2.70
2022-11-05T22:41:33.943Z,2.80
2022-11-05T22:44:00.953Z,2.70
2022-11-05T22:46:27.894Z,2.70
2022-11-05T22:48:56.258Z,2.90
2022-11-05T22:51:32.501Z,2.70
2022-11-05T22:54:00.251Z,2.60
2022-11-05T22:56:30.385Z,2.60
2022-11-05T22:58:58.046Z,2.50
2022-11-05T23:01:25.592Z,2.60
2022-11-05T23:03:54.482Z,2.40
2022-11-05T23:06:51.185Z,2.20
2022-11-05T23:09:37.921Z,2.40
2022-11-05T23:12:08.885Z,2.30
2022-11-05T23:14:36.733Z,2.20
2022-11-05T23:17:22.336Z,2.30
2022-11-05T23:20:07.813Z,2.50
2022-11-05T23:22:53.074Z,2.20
2022-11-05T23:25:22.316Z,2.10
2022-11-05T23:27:51.311Z,2.20
2022-11-05T23:30:20.784Z,2.20
2022-11-05T23:32:48.532Z,2.20
2022-11-05T23:35:16.007Z,2.30
2022-11-05T23:38:01.822Z,2.20
2022-11-05T23:40:31.151Z,2.30
2022-11-05T23:43:16.454Z,2.50
2022-11-05T23:46:03.274Z,2.00
2022-11-05T23:48:37.858Z,2.00
2022-11-05T23:51:11.101Z,2.20
2022-11-05T23:53:40.168Z,2.20
2022-11-05T23:56:15.093Z,2.10
2022-11-05T23:58:42.742Z,2.30
